createdAt,value
2023-10-04T00:00:48.392Z,9.57
2023-10-04T00:03:15.001Z,9.60
2023-10-04T00:05:42.620Z,9.68
2023-10-04T00:08:09.602Z,9.07
2023-10-04T00:10:36.081Z,9.43
2023-10-04T00:13:02.584Z,9.32
2023-10-04T00:15:30.736Z,9.38
2023-10-04T00:17:57.431Z,9.35
2023-10-04T00:20:32.540Z,9.57
2023-10-04T00:22:59.236Z,9.50
2023-10-04T00:25:26.772Z,10.18
2023-10-04T00:27:57.616Z,9.48
2023-10-04T00:30:27.524Z,9.65
2023-10-04T00:32:55.042Z,9.60
2023-10-04T00:35:22.917Z,9.95
2023-10-04T00:37:57.405Z,9.25
2023-10-04T00:40:24.146Z,8.50
2023-10-04T00:42:51.214Z,9.80
2023-10-04T00:45:18.512Z,9.07
2023-10-04T00:47:48.799Z,9.27
2023-10-04T00:50:16.806Z,9.60
2023-10-04T00:52:55.691Z,9.18
2023-10-04T00:55:22.503Z,8.48
2023-10-04T00:57:50.732Z,8.77
2023-10-04T01:00:18.723Z,9.10
2023-10-04T01:02:46.094Z,8.82
2023-10-04T01:05:13.526Z,8.82
2023-10-04T01:07:41.031Z,10.48
2023-10-04T01:10:08.231Z,9.30
2023-10-04T01:12:35.369Z,9.40
2023-10-04T01:15:13.945Z,10.05
2023-10-04T01:17:40.809Z,9.95
2023-10-04T01:20:14.870Z,8.70
2023-10-04T01:22:41.405Z,8.95
2023-10-04T01:25:12.619Z,9.43
2023-10-04T01:27:40.129Z,9.70
2023-10-04T01:30:09.420Z,9.38
2023-10-04T01:32:36.082Z,10.63
2023-10-04T01:35:02.604Z,10.55
2023-10-04T01:37:32.863Z,10.05
2023-10-04T01:39:59.641Z,9.35
2023-10-04T01:42:27.436Z,9.57
2023-10-04T01:44:55.894Z,10.50
2023-10-04T01:47:22.791Z,9.27
2023-10-04T01:49:49.418Z,9.25
2023-10-04T01:52:15.878Z,9.15
2023-10-04T01:54:42.473Z,9.85
2023-10-04T01:57:09.339Z,9.57
2023-10-04T01:59:35.793Z,9.93
2023-10-04T02:02:02.525Z,9.95
2023-10-04T02:04:29.331Z,9.30
2023-10-04T02:06:56.266Z,8.93
2023-10-04T02:09:22.928Z,9.68
2023-10-04T02:11:49.985Z,9.13
2023-10-04T02:14:16.516Z,10.25
2023-10-04T02:16:43.314Z,9.77
2023-10-04T02:19:10.541Z,9.73
2023-10-04T02:21:36.990Z,9.70
2023-10-04T02:24:03.642Z,9.77
2023-10-04T02:26:32.985Z,9.95
2023-10-04T02:28:59.529Z,10.07
2023-10-04T02:31:26.117Z,10.43
2023-10-04T02:33:53.525Z,9.02
2023-10-04T02:36:20.193Z,9.35
2023-10-04T02:38:47.526Z,10.35
2023-10-04T02:41:14.031Z,10.90
2023-10-04T02:43:41.237Z,9.55
2023-10-04T02:46:07.966Z,10.43
2023-10-04T02:48:36.063Z,9.93
2023-10-04T02:51:02.903Z,10.20
2023-10-04T02:53:29.864Z,10.25
2023-10-04T02:55:58.432Z,11.20
2023-10-04T02:58:25.768Z,11.32
2023-10-04T03:00:52.546Z,10.85
2023-10-04T03:03:23.981Z,10.45
2023-10-04T03:05:52.775Z,11.05
2023-10-04T03:08:19.538Z,10.13
2023-10-04T03:10:51.074Z,10.35
2023-10-04T03:13:24.212Z,10.55
2023-10-04T03:15:51.587Z,11.18
2023-10-04T03:18:22.367Z,11.05
2023-10-04T03:20:55.736Z,11.93
2023-10-04T03:23:23.135Z,10.48
2023-10-04T03:25:49.643Z,11.40
2023-10-04T03:28:16.802Z,11.07
2023-10-04T03:30:45.237Z,11.55
2023-10-04T03:33:12.737Z,11.30
2023-10-04T03:35:40.553Z,10.73
2023-10-04T03:38:07.324Z,10.48
2023-10-04T03:40:36.902Z,11.35
2023-10-04T03:43:07.126Z,10.88
2023-10-04T03:45:34.518Z,11.50
2023-10-04T03:48:01.110Z,12.07
2023-10-04T03:50:29.007Z,11.60
2023-10-04T03:52:58.727Z,11.10
2023-10-04T03:55:27.395Z,10.20
2023-10-04T03:57:56.415Z,11.50
2023-10-04T04:00:24.865Z,11.00
2023-10-04T04:02:52.240Z,11.55
2023-10-04T04:05:23.010Z,11.02
2023-10-04T04:07:49.736Z,12.80
2023-10-04T04:10:18.222Z,12.60
2023-10-04T04:12:46.471Z,12.50
2023-10-04T04:15:14.217Z,12.68
2023-10-04T04:17:46.002Z,13.52
2023-10-04T04:20:16.103Z,12.32
2023-10-04T04:22:54.824Z,12.00
2023-10-04T04:25:21.862Z,14.20
2023-10-04T04:27:48.769Z,14.30
2023-10-04T04:30:20.882Z,12.77
2023-10-04T04:32:53.830Z,11.93
2023-10-04T04:35:40.807Z,12.93
2023-10-04T04:38:20.826Z,15.55
2023-10-04T04:40:49.448Z,13.77
2023-10-04T04:43:24.976Z,12.88
2023-10-04T04:45:52.659Z,11.82
2023-10-04T04:48:26.196Z,12.35
2023-10-04T04:50:55.188Z,12.00
2023-10-04T04:53:25.744Z,11.85
2023-10-04T04:55:52.547Z,13.27
2023-10-04T04:58:24.077Z,11.10
2023-10-04T05:00:51.487Z,11.52
2023-10-04T05:03:18.604Z,11.77
2023-10-04T05:05:45.729Z,11.70
2023-10-04T05:08:12.586Z,10.77
2023-10-04T05:10:40.138Z,10.35
2023-10-04T05:13:10.676Z,9.27
2023-10-04T05:15:40.196Z,11.02
2023-10-04T05:20:39.950Z,8.93
2023-10-04T05:23:06.607Z,8.73
2023-10-04T05:25:33.378Z,9.00
2023-10-04T05:28:06.414Z,10.05
2023-10-04T05:30:34.009Z,10.43
2023-10-04T05:33:00.826Z,10.80
2023-10-04T05:35:27.683Z,11.27
2023-10-04T05:37:54.299Z,10.55
2023-10-04T05:40:26.652Z,10.65
2023-10-04T05:42:54.915Z,12.10
2023-10-04T05:45:25.035Z,11.73
2023-10-04T05:47:51.678Z,13.25
2023-10-04T05:50:27.964Z,12.30
2023-10-04T05:52:54.997Z,11.48
2023-10-04T05:55:22.040Z,14.57
2023-10-04T05:57:49.576Z,13.18
2023-10-04T06:00:34.976Z,12.73
2023-10-04T06:03:02.639Z,11.88
2023-10-04T06:05:29.772Z,12.50
2023-10-04T06:07:56.676Z,12.15
2023-10-04T06:10:26.085Z,12.32
2023-10-04T06:12:57.100Z,12.27
2023-10-04T06:15:25.791Z,12.35
2023-10-04T06:17:54.299Z,13.32
2023-10-04T06:20:34.442Z,13.23
2023-10-04T06:23:01.855Z,12.73
2023-10-04T06:25:30.237Z,13.38
2023-10-04T06:27:57.651Z,13.32
2023-10-04T06:30:27.700Z,12.43
2023-10-04T06:32:56.350Z,13.10
2023-10-04T06:35:26.587Z,12.65
2023-10-04T06:37:53.754Z,13.38
2023-10-04T06:40:20.704Z,13.18
2023-10-04T06:42:53.998Z,13.45
2023-10-04T06:45:21.098Z,13.27
2023-10-04T06:47:48.944Z,12.80
2023-10-04T06:50:16.975Z,13.27
2023-10-04T06:52:44.851Z,14.23
2023-10-04T06:55:12.329Z,13.93
2023-10-04T06:57:40.850Z,13.43
2023-10-04T07:00:17.521Z,14.20
2023-10-04T07:02:55.833Z,14.20
2023-10-04T07:05:25.197Z,13.52
2023-10-04T07:07:55.739Z,12.88
2023-10-04T07:10:22.890Z,11.75
2023-10-04T07:12:52.994Z,12.43
2023-10-04T07:15:20.300Z,11.68
2023-10-04T07:17:48.919Z,11.93
2023-10-04T07:20:16.545Z,11.70
2023-10-04T07:22:44.061Z,11.98
2023-10-04T07:25:13.229Z,12.27
2023-10-04T07:27:41.653Z,11.73
2023-10-04T07:30:08.760Z,11.25
2023-10-04T07:32:35.549Z,11.25
2023-10-04T07:35:03.180Z,12.30
2023-10-04T07:37:29.773Z,13.27
2023-10-04T07:39:56.518Z,13.25
2023-10-04T07:42:23.165Z,12.80
2023-10-04T07:44:49.787Z,12.13
2023-10-04T07:47:16.349Z,11.68
2023-10-04T07:49:42.972Z,12.02
2023-10-04T07:52:28.002Z,11.85
2023-10-04T07:54:55.646Z,11.57
2023-10-04T07:57:22.980Z,11.25
2023-10-04T07:59:50.394Z,10.63
2023-10-04T08:02:19.046Z,9.18
2023-10-04T08:04:49.815Z,8.93
2023-10-04T08:07:19.534Z,10.15
2023-10-04T08:09:46.444Z,8.60
2023-10-04T08:12:13.403Z,9.35
2023-10-04T08:14:39.929Z,10.15
2023-10-04T08:17:07.965Z,10.52
2023-10-04T08:19:34.614Z,10.57
2023-10-04T08:22:01.223Z,10.00
2023-10-04T08:24:28.146Z,10.68
2023-10-04T08:26:56.514Z,10.70
2023-10-04T08:29:24.794Z,10.60
2023-10-04T08:31:51.334Z,10.90
2023-10-04T08:34:19.917Z,10.93
2023-10-04T08:36:46.659Z,11.40
2023-10-04T08:39:15.177Z,10.95
2023-10-04T08:41:42.031Z,10.80
2023-10-04T08:44:09.288Z,11.13
2023-10-04T08:46:37.322Z,11.52
2023-10-04T08:49:06.665Z,10.18
2023-10-04T08:51:37.897Z,11.30
2023-10-04T08:54:13.384Z,9.52
2023-10-04T08:57:15.958Z,11.07
2023-10-04T08:59:43.400Z,11.20
2023-10-04T09:02:11.590Z,11.50
2023-10-04T09:04:40.906Z,11.70
2023-10-04T09:07:09.380Z,11.05
2023-10-04T09:09:37.259Z,10.02
2023-10-04T09:12:04.058Z,11.48
2023-10-04T09:14:33.229Z,10.70
2023-10-04T09:17:11.721Z,11.63
2023-10-04T09:19:38.984Z,11.38
2023-10-04T09:22:07.176Z,12.27
2023-10-04T09:24:36.574Z,11.95
2023-10-04T09:27:03.414Z,10.65
2023-10-04T09:29:34.130Z,11.27
2023-10-04T09:32:01.414Z,11.00
2023-10-04T09:34:31.288Z,10.23
2023-10-04T09:36:58.428Z,10.88
2023-10-04T09:39:29.759Z,10.65
2023-10-04T09:41:57.942Z,10.02
2023-10-04T09:44:27.551Z,8.88
2023-10-04T09:46:56.061Z,9.70
2023-10-04T09:49:23.438Z,9.93
2023-10-04T09:51:50.434Z,9.77
2023-10-04T09:54:19.878Z,9.73
2023-10-04T09:56:50.607Z,9.25
2023-10-04T09:59:18.463Z,9.27
2023-10-04T10:01:45.356Z,8.98
2023-10-04T10:04:16.614Z,9.50
2023-10-04T10:07:07.423Z,9.55
2023-10-04T10:09:48.979Z,9.20
2023-10-04T10:12:23.670Z,8.82
2023-10-04T10:14:50.486Z,8.75
2023-10-04T10:17:18.753Z,7.80
2023-10-04T10:19:46.308Z,8.57
2023-10-04T10:22:17.098Z,8.38
2023-10-04T10:24:50.291Z,8.07
2023-10-04T10:27:20.024Z,7.03
2023-10-04T10:29:47.259Z,7.75
2023-10-04T10:32:14.543Z,7.60
2023-10-04T10:34:41.618Z,8.10
2023-10-04T10:37:16.676Z,7.70
2023-10-04T10:39:47.392Z,6.07
2023-10-04T10:42:14.727Z,7.40
2023-10-04T10:44:41.936Z,7.10
2023-10-04T10:47:25.010Z,7.15
2023-10-04T10:49:53.927Z,5.47
2023-10-04T10:52:32.263Z,5.65
2023-10-04T10:55:00.140Z,5.53
2023-10-04T10:57:30.038Z,5.30
2023-10-04T10:59:57.726Z,6.03
2023-10-04T11:02:25.112Z,5.70
2023-10-04T11:04:52.767Z,5.85
2023-10-04T11:07:23.063Z,5.80
2023-10-04T11:09:55.765Z,4.45
2023-10-04T11:12:23.949Z,4.75
2023-10-04T11:14:51.247Z,4.63
2023-10-04T11:17:18.355Z,4.20
2023-10-04T11:19:45.859Z,4.50
2023-10-04T11:22:13.233Z,4.93
2023-10-04T11:24:42.568Z,4.03
2023-10-04T11:27:09.634Z,4.85
2023-10-04T11:29:36.510Z,3.80
2023-10-04T11:32:03.377Z,4.10
2023-10-04T11:34:36.592Z,3.53
2023-10-04T11:37:03.874Z,3.92
2023-10-04T11:39:35.222Z,4.85
2023-10-04T11:42:03.529Z,4.07
2023-10-04T11:44:31.400Z,4.05
2023-10-04T11:47:00.192Z,3.80
2023-10-04T11:49:29.562Z,3.78
2023-10-04T11:52:02.050Z,4.25
2023-10-04T11:54:48.020Z,3.90
2023-10-04T11:57:27.061Z,4.28
2023-10-04T11:59:54.121Z,3.60
2023-10-04T12:02:23.439Z,4.47
2023-10-04T12:04:50.655Z,4.28
2023-10-04T12:07:17.947Z,3.95
2023-10-04T12:09:44.595Z,3.90
2023-10-04T12:12:17.958Z,3.78
2023-10-04T12:14:45.613Z,3.65
2023-10-04T12:17:12.219Z,4.00
2023-10-04T12:19:38.759Z,3.00
2023-10-04T12:22:12.785Z,3.40
2023-10-04T12:24:40.016Z,3.50
2023-10-04T12:27:10.242Z,3.22
2023-10-04T12:29:37.850Z,4.95
2023-10-04T12:32:06.155Z,4.55
2023-10-04T12:34:32.698Z,5.60
2023-10-04T12:36:59.731Z,4.38
2023-10-04T12:39:26.503Z,4.60
2023-10-04T12:41:53.952Z,5.03
2023-10-04T12:44:20.809Z,6.28
2023-10-04T12:46:48.717Z,5.75
2023-10-04T12:49:16.411Z,6.13
2023-10-04T12:51:43.703Z,3.83
2023-10-04T12:54:10.568Z,4.40
2023-10-04T12:56:38.031Z,4.32
2023-10-04T12:59:06.320Z,4.90
2023-10-04T13:01:33.562Z,5.25
2023-10-04T13:04:04.667Z,5.80
2023-10-04T13:06:32.029Z,4.80
2023-10-04T13:08:59.069Z,5.50
2023-10-04T13:11:26.186Z,5.43
2023-10-04T13:13:53.160Z,5.88
2023-10-04T13:16:22.272Z,5.65
2023-10-04T13:18:50.476Z,5.10
2023-10-04T13:21:17.614Z,4.13
2023-10-04T13:23:44.593Z,3.92
2023-10-04T13:26:11.901Z,3.75
2023-10-04T13:28:38.786Z,3.90
2023-10-04T13:31:06.812Z,3.67
2023-10-04T13:33:33.430Z,3.70
2023-10-04T13:36:00.349Z,3.05
2023-10-04T13:38:27.081Z,3.38
2023-10-04T13:40:53.816Z,3.63
2023-10-04T13:43:23.432Z,4.00
2023-10-04T13:45:51.599Z,4.47
2023-10-04T13:48:20.662Z,4.70
2023-10-04T13:50:48.440Z,3.88
2023-10-04T13:53:19.103Z,4.10
2023-10-04T13:55:47.020Z,3.75
2023-10-04T13:58:23.242Z,4.40
2023-10-04T14:00:57.172Z,4.25
2023-10-04T14:03:24.969Z,5.05
2023-10-04T14:05:54.907Z,5.20
2023-10-04T14:08:21.870Z,4.75
2023-10-04T14:10:49.028Z,4.53
2023-10-04T14:13:16.546Z,4.18
2023-10-04T14:15:43.852Z,4.50
2023-10-04T14:18:12.224Z,4.57
2023-10-04T14:20:39.235Z,4.30
2023-10-04T14:25:58.131Z,4.07
2023-10-04T14:28:26.693Z,3.85
2023-10-04T14:30:53.621Z,3.53
2023-10-04T14:33:20.660Z,3.75
2023-10-04T14:35:48.407Z,3.95
2023-10-04T14:38:16.946Z,4.03
2023-10-04T14:40:58.024Z,4.20
2023-10-04T14:43:26.892Z,3.72
2023-10-04T14:45:54.067Z,3.90
2023-10-04T14:48:21.033Z,3.88
2023-10-04T14:51:11.105Z,2.35
2023-10-04T14:53:39.880Z,3.20
2023-10-04T14:56:07.025Z,4.13
2023-10-04T14:58:34.177Z,3.22
2023-10-04T15:01:07.462Z,3.33
2023-10-04T15:03:34.550Z,2.75
2023-10-04T15:06:01.410Z,1.65
2023-10-04T15:08:31.353Z,3.25
2023-10-04T15:10:58.019Z,3.33
2023-10-04T15:13:24.680Z,2.90
2023-10-04T15:16:06.475Z,2.70
2023-10-04T15:18:36.690Z,2.63
2023-10-04T15:21:05.509Z,2.88
2023-10-04T15:23:32.260Z,3.00
2023-10-04T15:25:58.887Z,2.75
2023-10-04T15:28:26.425Z,3.00
2023-10-04T15:30:53.758Z,2.63
2023-10-04T15:33:20.324Z,2.55
2023-10-04T15:35:46.977Z,2.50
2023-10-04T15:38:13.545Z,2.65
2023-10-04T15:40:42.461Z,2.30
2023-10-04T15:43:10.028Z,2.83
2023-10-04T15:45:41.723Z,2.92
2023-10-04T15:48:12.734Z,3.08
2023-10-04T15:50:39.577Z,2.58
2023-10-04T15:53:06.786Z,2.63
2023-10-04T15:55:33.503Z,1.63
2023-10-04T15:58:00.090Z,2.75
2023-10-04T16:00:34.789Z,2.35
2023-10-04T16:03:04.698Z,2.10
2023-10-04T16:05:32.121Z,2.42
2023-10-04T16:07:59.868Z,1.80
2023-10-04T16:10:29.688Z,2.90
2023-10-04T16:12:57.465Z,2.60
2023-10-04T16:15:24.739Z,2.45
2023-10-04T16:17:51.880Z,2.35
2023-10-04T16:20:19.056Z,2.80
2023-10-04T16:22:48.759Z,4.00
2023-10-04T16:25:15.317Z,2.90
2023-10-04T16:27:46.277Z,2.60
2023-10-04T16:30:16.045Z,2.80
2023-10-04T16:32:43.162Z,2.67
2023-10-04T16:35:14.671Z,3.10
2023-10-04T16:37:44.824Z,2.72
2023-10-04T16:40:14.513Z,2.20
2023-10-04T16:43:03.001Z,2.50
2023-10-04T16:45:29.784Z,2.53
2023-10-04T16:47:56.388Z,4.15
2023-10-04T16:50:24.927Z,4.40
2023-10-04T16:52:54.854Z,4.45
2023-10-04T16:55:21.529Z,3.78
2023-10-04T16:57:48.342Z,3.90
2023-10-04T17:00:18.024Z,3.40
2023-10-04T17:02:45.316Z,4.28
2023-10-04T17:05:12.414Z,4.05
2023-10-04T17:07:40.346Z,6.05
2023-10-04T17:10:07.756Z,5.15
2023-10-04T17:12:34.597Z,5.28
2023-10-04T17:15:01.445Z,5.10
2023-10-04T17:17:29.186Z,3.72
2023-10-04T17:19:56.810Z,3.30
2023-10-04T17:22:24.250Z,4.05
2023-10-04T17:24:51.067Z,3.50
2023-10-04T17:27:18.668Z,3.70
2023-10-04T17:29:45.606Z,3.60
2023-10-04T17:32:13.072Z,3.60
2023-10-04T17:34:40.989Z,3.95
2023-10-04T17:37:07.617Z,3.75
2023-10-04T17:39:35.953Z,4.65
2023-10-04T17:42:03.042Z,5.25
2023-10-04T17:44:29.677Z,5.88
2023-10-04T17:46:57.748Z,6.60
2023-10-04T17:49:25.075Z,5.25
2023-10-04T17:51:53.302Z,5.82
2023-10-04T17:54:20.313Z,5.18
2023-10-04T17:56:47.260Z,4.93
2023-10-04T17:59:14.438Z,5.22
2023-10-04T18:01:41.238Z,5.55
2023-10-04T18:04:09.728Z,4.70
2023-10-04T18:06:36.807Z,5.80
2023-10-04T18:09:04.298Z,5.63
2023-10-04T18:11:31.563Z,5.43
2023-10-04T18:13:58.303Z,6.63
2023-10-04T18:16:24.891Z,5.43
2023-10-04T18:18:51.598Z,6.85
2023-10-04T18:21:18.592Z,6.15
2023-10-04T18:23:45.231Z,5.70
2023-10-04T18:26:11.833Z,5.63
2023-10-04T18:28:38.820Z,5.78
2023-10-04T18:31:06.876Z,5.15
2023-10-04T18:33:35.561Z,5.30
2023-10-04T18:36:02.333Z,5.30
2023-10-04T18:38:29.154Z,5.88
2023-10-04T18:40:55.904Z,5.90
2023-10-04T18:43:22.515Z,5.45
2023-10-04T18:45:49.224Z,4.82
2023-10-04T18:48:16.224Z,5.10
2023-10-04T18:50:43.142Z,5.03
2023-10-04T18:53:11.763Z,5.65
2023-10-04T18:55:42.288Z,5.18
2023-10-04T18:58:11.804Z,4.82
2023-10-04T19:00:38.407Z,5.25
2023-10-04T19:03:05.379Z,5.60
2023-10-04T19:05:32.170Z,4.80
2023-10-04T19:07:59.146Z,4.97
2023-10-04T19:10:25.724Z,5.65
2023-10-04T19:12:54.884Z,4.78
2023-10-04T19:15:22.283Z,5.03
2023-10-04T19:17:48.928Z,5.28
2023-10-04T19:20:16.894Z,4.60
2023-10-04T19:22:43.846Z,5.88
2023-10-04T19:25:11.378Z,4.82
2023-10-04T19:27:38.408Z,5.55
2023-10-04T19:30:05.368Z,4.85
2023-10-04T19:32:33.482Z,5.57
2023-10-04T19:35:00.050Z,5.38
2023-10-04T19:37:26.644Z,5.60
2023-10-04T19:39:53.915Z,6.22
2023-10-04T19:42:21.127Z,5.60
2023-10-04T19:44:50.208Z,5.65
2023-10-04T19:47:19.790Z,5.90
2023-10-04T19:49:46.957Z,5.57
2023-10-04T19:52:14.324Z,7.15
2023-10-04T19:54:41.977Z,6.13
2023-10-04T19:57:08.554Z,6.45
2023-10-04T19:59:35.338Z,6.32
2023-10-04T20:02:02.010Z,6.63
2023-10-04T20:04:29.055Z,6.68
2023-10-04T20:06:59.148Z,6.95
2023-10-04T20:09:31.287Z,7.25
2023-10-04T20:12:00.366Z,7.05
2023-10-04T20:14:29.741Z,7.18
2023-10-04T20:16:58.073Z,7.32
2023-10-04T20:22:46.856Z,7.82
2023-10-04T20:25:18.189Z,7.35
2023-10-04T20:27:46.300Z,8.20
2023-10-04T20:30:15.008Z,7.80
2023-10-04T20:32:43.253Z,7.82
2023-10-04T20:35:11.346Z,7.53
2023-10-04T20:37:38.271Z,9.80
2023-10-04T20:42:37.871Z,8.82
2023-10-04T20:45:05.769Z,9.07
2023-10-04T20:47:32.741Z,9.05
2023-10-04T20:49:59.525Z,9.20
2023-10-04T20:52:26.274Z,9.35
2023-10-04T20:54:52.850Z,9.23
2023-10-04T20:57:21.662Z,9.27
2023-10-04T20:59:51.407Z,9.75
2023-10-04T21:02:17.997Z,9.02
2023-10-04T21:04:45.406Z,9.10
2023-10-04T21:07:12.457Z,9.13
2023-10-04T21:09:39.316Z,10.20
2023-10-04T21:12:06.633Z,10.50
2023-10-04T21:14:33.151Z,9.48
2023-10-04T21:17:00.741Z,8.95
2023-10-04T21:19:29.138Z,10.07
2023-10-04T21:21:55.769Z,10.00
2023-10-04T21:24:22.615Z,10.50
2023-10-04T21:26:49.334Z,10.00
2023-10-04T21:29:15.959Z,10.00
2023-10-04T21:31:42.634Z,10.43
2023-10-04T21:34:11.041Z,10.52
2023-10-04T21:36:38.896Z,10.45
2023-10-04T21:39:08.804Z,10.52
2023-10-04T21:41:43.269Z,10.70
2023-10-04T21:44:12.539Z,10.00
2023-10-04T21:46:42.293Z,10.55
2023-10-04T21:49:11.268Z,10.85
2023-10-04T21:51:49.137Z,10.48
2023-10-04T21:54:19.609Z,10.10
2023-10-04T21:56:46.439Z,10.57
2023-10-04T21:59:19.171Z,10.10
2023-10-04T22:01:46.853Z,10.45
2023-10-04T22:04:14.372Z,10.82
2023-10-04T22:06:41.555Z,10.40
2023-10-04T22:09:20.457Z,11.10
2023-10-04T22:11:48.371Z,10.30
2023-10-04T22:14:15.328Z,10.15
2023-10-04T22:16:42.914Z,11.05
2023-10-04T22:19:11.927Z,9.77
2023-10-04T22:21:38.996Z,10.80
2023-10-04T22:24:07.295Z,10.90
2023-10-04T22:26:35.107Z,11.07
2023-10-04T22:29:06.255Z,9.25
2023-10-04T22:31:42.049Z,9.50
2023-10-04T22:34:09.496Z,9.80
2023-10-04T22:36:37.682Z,10.07
2023-10-04T22:39:09.455Z,9.20
2023-10-04T22:41:37.532Z,9.77
2023-10-04T22:44:06.306Z,9.57
2023-10-04T22:46:44.312Z,9.68
2023-10-04T22:49:11.180Z,8.63
2023-10-04T22:51:37.769Z,8.63
2023-10-04T22:54:05.313Z,8.98
2023-10-04T22:56:32.150Z,8.68
2023-10-04T22:58:58.842Z,9.38
2023-10-04T23:01:27.477Z,8.50
2023-10-04T23:03:57.752Z,9.77
2023-10-04T23:06:24.588Z,8.82
2023-10-04T23:08:51.245Z,9.27
2023-10-04T23:11:20.853Z,9.40
2023-10-04T23:13:49.969Z,9.15
2023-10-04T23:16:16.998Z,8.88
2023-10-04T23:18:46.872Z,8.32
2023-10-04T23:21:24.992Z,9.00
2023-10-04T23:23:53.665Z,8.57
2023-10-04T23:26:22.341Z,8.70
2023-10-04T23:28:49.479Z,7.82
2023-10-04T23:31:18.229Z,7.95
2023-10-04T23:33:53.078Z,8.05
2023-10-04T23:36:22.266Z,8.55
2023-10-04T23:38:53.080Z,8.35
2023-10-04T23:41:25.686Z,9.05
2023-10-04T23:43:52.516Z,8.18
2023-10-04T23:46:38.109Z,9.77
2023-10-04T23:49:14.380Z,8.90
2023-10-04T23:51:44.505Z,8.95
2023-10-04T23:54:14.835Z,9.23
2023-10-04T23:57:02.718Z,8.63
2023-10-04T23:59:29.253Z,8.52
